Time;durP1;ratioP1;P1;durP2;ratioP2;P2;SDS_P1;SDS_P2;PMS_P1;PMS_P2;Temp;Humidity;BMP_temperature;BMP_pressure;BME280_temperature;BME280_humidity;BME280_pressure;Samples;Min_cycle;Max_cycle;Signal;HPM_P1;HPM_P2
2022/02/10 00:22:16;;;;;;;16.40;9.23;;;8.70;99.90;;;;;;5114004;28;20058;-73
2022/02/10 00:37:57;;;;;;;13.45;8.30;;;8.80;99.90;;;;;;5113789;28;20464;-73
2022/02/10 00:40:31;;;;;;;12.68;8.25;;;8.80;99.90;;;;;;5113898;28;20016;-74
2022/02/10 00:43:00;;;;;;;11.57;6.68;;;8.90;99.90;;;;;;5113848;28;20024;-75
2022/02/10 00:45:29;;;;;;;10.82;6.50;;;8.90;99.90;;;;;;5113405;28;20027;-74
2022/02/10 00:48:02;;;;;;;10.50;6.20;;;8.90;99.90;;;;;;5113470;28;20020;-75
2022/02/10 00:50:30;;;;;;;10.77;6.47;;;9.00;99.90;;;;;;5113799;28;20022;-75
2022/02/10 00:53:23;;;;;;;10.98;6.57;;;9.00;99.90;;;;;;5113426;28;20019;-74
2022/02/10 00:55:45;;;;;;;11.75;6.70;;;9.10;99.90;;;;;;5112924;28;20035;-75
2022/02/10 00:58:19;;;;;;;14.10;8.00;;;9.10;99.90;;;;;;5113978;28;20099;-75
2022/02/10 01:12:14;;;;;;;11.52;5.60;;;9.10;99.90;;;;;;5117465;28;20083;-74
2022/02/10 01:24:29;;;;;;;9.52;5.53;;;9.00;99.90;;;;;;5116951;28;20107;-74
2022/02/10 01:31:01;;;;;;;9.85;5.07;;;9.00;99.90;;;;;;5117113;28;20022;-75
2022/02/10 01:33:29;;;;;;;9.32;4.53;;;9.00;99.90;;;;;;5116753;28;20106;-74
2022/02/10 01:35:54;;;;;;;9.60;4.75;;;9.10;99.90;;;;;;5115422;28;20030;-75
2022/02/10 01:38:20;;;;;;;8.10;4.43;;;9.00;99.90;;;;;;5116644;28;20104;-73
2022/02/10 02:04:55;;;;;;;5.70;3.13;;;8.90;99.90;;;;;;5115929;28;20135;-73
2022/02/10 02:07:28;;;;;;;5.20;3.03;;;8.90;99.90;;;;;;5116154;28;20488;-74
2022/02/10 02:09:54;;;;;;;7.70;3.65;;;9.00;99.90;;;;;;5114550;28;20508;-75
2022/02/10 02:12:20;;;;;;;6.80;3.30;;;9.00;99.90;;;;;;5116016;28;20019;-74
2022/02/10 02:14:46;;;;;;;4.78;3.15;;;9.00;99.90;;;;;;5113527;28;20046;-74
2022/02/10 02:17:11;;;;;;;6.45;2.92;;;9.00;99.90;;;;;;5115921;28;20090;-74
2022/02/10 02:19:37;;;;;;;5.38;3.00;;;9.00;99.90;;;;;;5115854;28;20051;-74
2022/02/10 02:22:07;;;;;;;6.10;3.22;;;9.00;99.90;;;;;;5115846;28;20028;-73
2022/02/10 02:24:33;;;;;;;6.32;3.20;;;9.00;99.90;;;;;;5115998;28;20027;-74
2022/02/10 02:27:03;;;;;;;5.70;3.20;;;9.00;99.90;;;;;;5115990;28;20427;-75
2022/02/10 02:29:34;;;;;;;4.65;2.75;;;9.10;99.90;;;;;;5115742;28;20485;-74
2022/02/10 02:32:06;;;;;;;6.70;3.15;;;9.10;99.90;;;;;;5115982;28;20023;-74
2022/02/10 02:38:34;;;;;;;;;;;9.00;99.90;;;;;;5116014;28;20066;-74
2022/02/10 03:03:59;;;;;;;5.55;2.85;;;8.90;99.90;;;;;;5105900;28;19904;-74
2022/02/10 03:12:40;;;;;;;5.07;2.50;;;9.10;99.90;;;;;;5114875;28;20528;-75
2022/02/10 03:15:14;;;;;;;8.60;3.10;;;9.20;99.90;;;;;;5114778;28;20026;-73
2022/02/10 03:17:53;;;;;;;4.63;2.92;;;9.20;99.90;;;;;;5115357;28;20043;-74
2022/02/10 04:04:26;;;;;;;7.05;2.55;;;9.30;99.90;;;;;;5113944;28;20054;-74
2022/02/10 04:12:53;;;;;;;4.30;2.40;;;9.20;99.90;;;;;;5113830;28;20431;-75
2022/02/10 04:28:20;;;;;;;3.63;2.05;;;9.20;99.90;;;;;;5113944;28;20038;-74
2022/02/10 04:58:27;;;;;;;4.05;2.35;;;9.30;99.90;;;;;;5117527;28;20034;-74
2022/02/10 05:15:11;;;;;;;38.45;23.10;;;9.30;99.90;;;;;;5117213;28;20031;-74
2022/02/10 05:38:14;;;;;;;4.55;2.50;;;9.20;99.90;;;;;;5116712;28;20028;-74
2022/02/10 05:46:05;;;;;;;7.25;2.55;;;9.40;99.90;;;;;;5116517;28;20495;-75
2022/02/10 05:48:59;;;;;;;8.63;3.75;;;9.40;99.90;;;;;;5116469;28;20019;-74
2022/02/10 05:51:58;;;;;;;9.73;2.95;;;9.40;99.90;;;;;;5114948;28;20031;-74
2022/02/10 07:47:12;;;;;;;7.95;3.92;;;9.20;99.90;;;;;;5113950;28;20031;-75
2022/02/10 07:50:21;;;;;;;9.10;3.20;;;9.20;99.90;;;;;;5114040;28;20031;-75
2022/02/10 07:58:29;;;;;;;8.07;4.22;;;9.20;99.90;;;;;;5114395;28;20077;-74
2022/02/10 08:26:30;;;;;;;8.00;4.28;;;9.50;99.90;;;;;;5108749;28;20035;-78
2022/02/10 08:56:25;;;;;;;7.80;3.35;;;9.40;99.90;;;;;;5114196;28;20034;-75
2022/02/10 09:01:38;;;;;;;7.80;3.95;;;9.60;99.90;;;;;;5108461;28;20037;-76
2022/02/10 09:04:17;;;;;;;6.90;3.60;;;9.60;99.90;;;;;;5113144;28;20092;-76
2022/02/10 09:57:31;;;;;;;7.70;3.65;;;10.90;99.90;;;;;;5097120;28;20031;-75
2022/02/10 10:02:13;;;;;;;9.55;4.90;;;11.00;99.90;;;;;;5096267;28;20051;-81
2022/02/10 10:04:59;;;;;;;9.15;4.10;;;11.00;99.90;;;;;;5095971;28;20490;-76
2022/02/10 10:07:45;;;;;;;7.15;3.47;;;11.10;99.90;;;;;;5098641;28;20169;-78
2022/02/10 10:21:17;;;;;;;8.90;3.58;;;11.50;99.90;;;;;;5095809;28;20036;-73
2022/02/10 10:54:42;;;;;;;6.60;2.30;;;12.00;99.90;;;;;;5099022;28;20482;-77
2022/02/10 10:57:21;;;;;;;7.55;2.63;;;12.00;99.90;;;;;;5094349;28;20024;-77
2022/02/10 11:36:27;;;;;;;7.03;3.53;;;11.70;99.90;;;;;;5113734;28;20421;-74
2022/02/10 11:39:56;;;;;;;6.40;3.53;;;11.70;99.90;;;;;;5112811;28;20020;-74
2022/02/10 14:26:00;;;;;;;4.93;2.33;;;10.10;99.90;;;;;;5095679;28;20028;-78
2022/02/10 14:28:27;;;;;;;3.70;1.83;;;10.00;99.90;;;;;;5093675;28;20028;-78
2022/02/10 14:30:54;;;;;;;2.58;1.38;;;9.90;99.90;;;;;;5095684;28;20020;-75
2022/02/10 14:33:25;;;;;;;5.30;2.10;;;9.80;99.90;;;;;;5106495;28;20481;-78
2022/02/10 15:11:07;;;;;;;3.67;1.65;;;9.20;99.90;;;;;;5094316;28;20111;-75
2022/02/10 15:52:01;;;;;;;6.43;3.10;;;9.20;99.90;;;;;;5109899;28;20513;-73
2022/02/10 16:18:24;;;;;;;4.95;1.80;;;8.90;99.90;;;;;;5094190;28;20043;-73
2022/02/10 16:20:58;;;;;;;5.85;2.05;;;8.90;99.90;;;;;;5107723;28;20119;-74
2022/02/10 16:23:25;;;;;;;3.72;1.67;;;8.90;99.90;;;;;;5113202;28;20040;-74
2022/02/10 16:26:09;;;;;;;6.85;2.10;;;8.80;99.90;;;;;;5112161;28;20031;-72
2022/02/10 16:28:35;;;;;;;4.65;1.60;;;8.90;99.90;;;;;;5096190;28;20082;-74
2022/02/10 16:31:02;;;;;;;4.43;2.00;;;8.90;99.90;;;;;;5092921;28;20019;-73
2022/02/10 16:33:33;;;;;;;6.55;1.80;;;8.80;99.90;;;;;;5092726;28;20099;-73
2022/02/10 16:36:00;;;;;;;6.03;2.10;;;8.80;99.90;;;;;;5093567;28;20059;-73
2022/02/10 16:38:29;;;;;;;8.35;2.00;;;8.80;99.90;;;;;;5092831;28;20060;-73
2022/02/10 16:40:55;;;;;;;3.90;1.58;;;8.60;99.90;;;;;;5093240;28;20024;-73
2022/02/10 16:43:22;;;;;;;7.00;1.95;;;8.50;99.90;;;;;;5093118;28;20062;-73
2022/02/10 16:45:47;;;;;;;5.97;2.15;;;8.60;99.90;;;;;;5092814;28;20030;-74
2022/02/10 16:48:13;;;;;;;5.13;1.90;;;8.60;99.90;;;;;;5093070;28;20099;-73
2022/02/10 16:50:43;;;;;;;5.72;1.90;;;8.60;99.90;;;;;;5091910;28;20020;-73
2022/02/10 16:53:12;;;;;;;5.35;2.08;;;8.70;99.90;;;;;;5091559;28;20081;-74
2022/02/10 16:55:49;;;;;;;7.55;1.92;;;8.60;99.90;;;;;;5093277;28;20024;-74
2022/02/10 16:58:37;;;;;;;3.08;1.85;;;8.60;99.90;;;;;;5093424;28;20032;-73
2022/02/10 17:27:31;;;;;;;6.38;1.60;;;8.30;99.90;;;;;;5092559;28;20069;-74
2022/02/10 17:53:59;;;;;;;6.50;2.53;;;8.50;99.90;;;;;;5096410;28;20029;-73
2022/02/10 17:56:26;;;;;;;7.97;2.33;;;8.60;99.90;;;;;;5096688;28;20039;-73
2022/02/10 17:58:55;;;;;;;8.50;2.10;;;8.60;99.90;;;;;;5096076;28;20030;-73
2022/02/10 18:01:20;;;;;;;7.57;2.75;;;8.60;99.90;;;;;;5094699;28;20028;-73
2022/02/10 18:03:47;;;;;;;5.35;2.47;;;8.70;99.90;;;;;;5095904;28;20050;-73
2022/02/10 18:11:37;;;;;;;3.75;1.80;;;8.90;99.90;;;;;;5096348;28;20020;-73
2022/02/10 18:16:35;;;;;;;4.65;1.92;;;8.90;99.90;;;;;;5095991;28;20439;-74
2022/02/10 18:19:15;;;;;;;4.47;2.00;;;8.90;99.90;;;;;;5094129;28;20032;-73
2022/02/10 19:02:24;;;;;;;3.47;1.92;;;8.60;99.90;;;;;;5094628;28;20504;-73
2022/02/10 19:10:02;;;;;;;5.13;2.78;;;8.60;99.90;;;;;;5094448;28;20026;-73
2022/02/10 19:12:30;;;;;;;4.28;2.58;;;8.60;99.90;;;;;;5094905;28;20032;-73
2022/02/10 19:15:06;;;;;;;4.85;3.00;;;8.60;99.90;;;;;;5094598;28;20027;-74
2022/02/10 19:17:33;;;;;;;5.45;2.40;;;8.50;99.90;;;;;;5092981;28;20400;-73
2022/02/10 19:19:59;;;;;;;4.25;2.45;;;8.60;99.90;;;;;;5094534;28;20042;-73
2022/02/10 19:22:26;;;;;;;5.43;2.67;;;8.60;99.90;;;;;;5094487;28;20023;-73
2022/02/10 19:24:54;;;;;;;4.82;2.42;;;8.70;99.90;;;;;;5094427;28;20035;-73
2022/02/10 19:27:22;;;;;;;4.20;2.50;;;8.70;99.90;;;;;;5094862;28;20097;-73
2022/02/10 19:29:49;;;;;;;7.82;3.15;;;8.60;99.90;;;;;;5094337;28;20054;-73
2022/02/10 19:32:18;;;;;;;4.97;2.53;;;8.70;99.90;;;;;;5094252;28;20016;-73
2022/02/10 19:34:45;;;;;;;4.97;2.67;;;8.60;99.90;;;;;;5092910;28;20378;-73
2022/02/10 19:37:12;;;;;;;5.68;2.70;;;8.60;99.90;;;;;;5092895;28;20028;-73
2022/02/10 19:39:41;;;;;;;4.07;2.50;;;8.60;99.90;;;;;;5094424;28;20412;-73
2022/02/10 19:42:07;;;;;;;7.35;2.65;;;8.60;99.90;;;;;;5094089;28;20532;-73
2022/02/10 19:44:33;;;;;;;6.18;3.20;;;8.50;99.90;;;;;;5094060;28;20150;-73
2022/02/10 19:47:02;;;;;;;6.60;4.47;;;8.40;99.90;;;;;;5093944;28;20024;-73
2022/02/10 19:49:28;;;;;;;13.77;9.80;;;8.30;99.90;;;;;;5094183;28;20027;-73
2022/02/10 19:51:53;;;;;;;14.00;9.48;;;8.40;99.90;;;;;;5094153;28;20024;-73
2022/02/10 19:54:26;;;;;;;10.95;6.75;;;8.30;99.90;;;;;;5094013;28;20058;-74
2022/02/10 19:56:57;;;;;;;9.48;5.45;;;8.30;99.90;;;;;;5092315;28;20097;-73
2022/02/10 19:59:26;;;;;;;10.35;5.20;;;8.30;99.90;;;;;;5093853;28;20024;-73
2022/02/10 20:01:52;;;;;;;8.90;5.93;;;8.30;99.90;;;;;;5093752;28;20020;-73
2022/02/10 20:04:20;;;;;;;6.97;5.15;;;8.10;99.90;;;;;;5093615;28;20130;-73
2022/02/10 20:06:47;;;;;;;9.55;6.75;;;8.10;99.90;;;;;;5093831;28;20031;-73
2022/02/10 20:09:13;;;;;;;12.07;8.60;;;8.00;99.90;;;;;;5093596;28;20534;-73
2022/02/10 20:11:39;;;;;;;11.80;6.70;;;8.00;99.90;;;;;;5093578;28;20016;-73
2022/02/10 20:14:05;;;;;;;8.45;5.15;;;7.80;99.90;;;;;;5093821;28;20032;-73
2022/02/10 20:16:30;;;;;;;8.38;5.40;;;7.80;99.90;;;;;;5093527;28;20016;-73
2022/02/10 20:18:56;;;;;;;7.65;4.82;;;7.80;99.90;;;;;;5093739;28;20483;-73
2022/02/10 20:21:23;;;;;;;8.02;3.67;;;7.70;99.90;;;;;;5093735;28;20111;-73
2022/02/10 20:23:49;;;;;;;6.35;3.28;;;7.60;99.90;;;;;;5093465;28;20500;-73
2022/02/10 20:26:15;;;;;;;5.57;3.28;;;7.60;99.90;;;;;;5093325;28;20028;-73
2022/02/10 20:28:41;;;;;;;5.05;2.83;;;7.60;99.90;;;;;;5093619;28;20529;-73
2022/02/10 20:31:08;;;;;;;4.72;2.83;;;7.40;99.90;;;;;;5093910;28;20028;-73
2022/02/10 20:33:34;;;;;;;6.03;3.03;;;7.30;99.90;;;;;;5093353;28;20024;-73
2022/02/10 20:36:03;;;;;;;4.45;2.78;;;7.10;99.90;;;;;;5093328;28;20028;-73
2022/02/10 20:38:31;;;;;;;4.97;2.75;;;7.00;99.90;;;;;;5093808;28;20485;-73
2022/02/10 20:41:01;;;;;;;9.57;4.70;;;6.80;99.90;;;;;;5093260;28;20118;-73
2022/02/10 20:43:28;;;;;;;5.72;3.50;;;6.90;99.90;;;;;;5093545;28;20024;-73
2022/02/10 20:46:00;;;;;;;5.07;2.95;;;6.90;99.90;;;;;;5093388;28;20034;-73
2022/02/10 20:48:29;;;;;;;6.60;3.83;;;6.90;99.90;;;;;;5093526;28;20111;-73
2022/02/10 20:50:57;;;;;;;6.82;3.78;;;7.00;99.90;;;;;;5093774;28;20016;-73
2022/02/10 20:53:28;;;;;;;8.90;4.07;;;6.90;99.90;;;;;;5093124;28;20457;-73
2022/02/10 20:56:02;;;;;;;9.02;4.15;;;6.80;99.90;;;;;;5093117;28;20397;-73
2022/02/10 20:58:30;;;;;;;6.80;3.90;;;6.70;99.90;;;;;;5093622;28;20017;-72
2022/02/10 21:00:59;;;;;;;6.68;4.15;;;6.80;99.90;;;;;;5093085;28;20429;-73
2022/02/10 21:03:28;;;;;;;6.05;3.63;;;6.90;99.90;;;;;;5092849;28;20048;-73
2022/02/10 21:06:05;;;;;;;8.30;4.70;;;6.80;99.90;;;;;;5093277;28;20054;-73
2022/02/10 21:11:11;;;;;;;12.45;7.03;;;6.80;99.90;;;;;;5093575;28;20062;-73
2022/02/10 21:13:38;;;;;;;9.95;6.68;;;6.90;99.90;;;;;;5093536;28;20044;-73
2022/02/10 21:16:04;;;;;;;11.52;6.75;;;6.90;99.90;;;;;;5092973;28;20027;-73
2022/02/10 21:18:30;;;;;;;11.63;8.95;;;7.00;99.90;;;;;;5092967;28;20073;-73
2022/02/10 21:21:03;;;;;;;16.77;11.50;;;7.00;99.90;;;;;;5096342;28;20102;-73
2022/02/10 21:23:37;;;;;;;10.32;6.53;;;6.90;99.90;;;;;;5095254;28;20024;-73
2022/02/10 21:26:03;;;;;;;11.75;9.05;;;6.80;99.90;;;;;;5095067;28;20027;-73
2022/02/10 21:28:32;;;;;;;14.02;6.03;;;6.70;99.90;;;;;;5096931;28;20016;-73
2022/02/10 21:31:01;;;;;;;20.65;17.63;;;6.60;99.90;;;;;;5095319;28;20016;-73
2022/02/10 21:38:40;;;;;;;6.95;3.60;;;6.90;99.90;;;;;;5096820;28;20043;-73
2022/02/10 22:18:53;;;;;;;11.00;5.38;;;6.60;99.90;;;;;;5095728;28;20442;-73
2022/02/10 22:21:32;;;;;;;9.13;5.50;;;6.60;99.90;;;;;;5095693;28;20543;-73
2022/02/10 22:23:58;;;;;;;10.10;4.40;;;6.60;99.90;;;;;;5095937;28;20028;-73
2022/02/10 22:26:27;;;;;;;8.95;4.75;;;6.60;99.90;;;;;;5095815;28;20031;-73
2022/02/10 22:29:05;;;;;;;9.95;4.15;;;6.50;99.90;;;;;;5095830;28;20016;-73
2022/02/10 22:31:49;;;;;;;9.43;5.57;;;6.60;99.90;;;;;;5094250;28;20020;-73
2022/02/10 22:36:46;;;;;;;9.70;5.20;;;6.50;99.90;;;;;;5095956;28;20119;-73
2022/02/10 22:39:13;;;;;;;11.65;5.72;;;6.40;99.90;;;;;;5095838;28;20556;-73
2022/02/10 22:41:39;;;;;;;69.00;32.90;;;6.50;99.90;;;;;;5095251;28;20028;-72
2022/02/10 22:44:06;;;;;;;79.70;31.95;;;6.40;99.90;;;;;;5095244;28;20074;-73
2022/02/10 22:46:32;;;;;;;197.07;73.13;;;6.50;99.90;;;;;;5095092;28;20028;-73
2022/02/10 22:49:00;;;;;;;15.50;7.78;;;6.50;99.90;;;;;;5095130;28;20024;-73
2022/02/10 22:51:31;;;;;;;83.63;34.40;;;6.50;99.90;;;;;;5095054;28;20024;-73
2022/02/10 22:53:57;;;;;;;49.25;18.77;;;6.50;99.90;;;;;;5095002;28;20020;-73
2022/02/10 22:56:28;;;;;;;234.63;84.10;;;6.40;99.90;;;;;;5094988;28;20028;-73
2022/02/10 22:58:56;;;;;;;62.90;29.15;;;6.30;99.90;;;;;;5095287;28;20024;-73
2022/02/10 23:01:22;;;;;;;382.10;140.43;;;6.30;99.90;;;;;;5094889;28;20077;-73
2022/02/10 23:03:47;;;;;;;26.30;14.02;;;6.20;99.90;;;;;;5094673;28;20044;-73
2022/02/10 23:06:14;;;;;;;13.05;7.65;;;6.30;99.90;;;;;;5094987;28;20485;-73
2022/02/10 23:08:40;;;;;;;16.33;7.65;;;6.30;99.90;;;;;;5095043;28;20415;-73
2022/02/10 23:11:07;;;;;;;10.57;6.18;;;6.00;99.90;;;;;;5094687;28;20512;-73
2022/02/10 23:13:34;;;;;;;9.77;5.43;;;5.70;99.90;;;;;;5094654;28;20085;-73
2022/02/10 23:16:03;;;;;;;9.50;5.40;;;5.20;99.90;;;;;;5095162;28;20024;-73
2022/02/10 23:18:31;;;;;;;7.97;5.20;;;4.80;99.90;;;;;;5094513;28;20024;-73
2022/02/10 23:21:00;;;;;;;9.23;4.97;;;5.00;99.90;;;;;;5094781;28;20032;-73
2022/02/10 23:23:29;;;;;;;9.88;5.00;;;5.20;99.90;;;;;;5094511;28;20016;-72
2022/02/10 23:25:56;;;;;;;11.43;5.35;;;5.50;99.90;;;;;;5094378;28;20397;-73
2022/02/10 23:28:32;;;;;;;14.93;8.02;;;5.70;99.90;;;;;;5094295;28;20020;-73
2022/02/10 23:31:00;;;;;;;48.75;26.40;;;5.70;99.90;;;;;;5092776;28;20400;-72
2022/02/10 23:38:59;;;;;;;26.13;22.85;;;5.80;99.90;;;;;;5093955;28;20053;-73
2022/02/10 23:43:59;;;;;;;41.58;24.85;;;5.80;99.90;;;;;;5094094;28;20077;-73
2022/02/10 23:46:25;;;;;;;11.18;5.95;;;5.70;99.90;;;;;;5094277;28;20028;-73
2022/02/10 23:48:53;;;;;;;12.77;6.30;;;5.60;99.90;;;;;;5094603;28;20029;-73
2022/02/10 23:51:21;;;;;;;11.32;6.30;;;5.60;99.90;;;;;;5093969;28;20534;-73
2022/02/10 23:53:47;;;;;;;13.48;6.15;;;5.50;99.90;;;;;;5093873;28;20073;-73
2022/02/10 23:56:16;;;;;;;10.45;5.47;;;5.40;99.90;;;;;;5092595;28;20541;-72
2022/02/10 23:58:57;;;;;;;8.85;5.47;;;5.40;99.90;;;;;;5093841;28;20016;-73
